createdAt,value
2023-04-23T00:02:03.118Z,55.75
2023-04-23T00:04:42.445Z,55.55
2023-04-23T00:07:16.542Z,55.76
2023-04-23T00:09:54.161Z,55.77
2023-04-23T00:12:28.031Z,55.89
2023-04-23T00:15:06.156Z,56.13
2023-04-23T00:17:40.354Z,56.19
2023-04-23T00:20:13.988Z,56.01
2023-04-23T00:22:46.360Z,56.09
2023-04-23T00:25:19.170Z,56.18
2023-04-23T00:27:51.495Z,56.31
2023-04-23T00:30:24.250Z,56.17
2023-04-23T00:32:59.320Z,56.61
2023-04-23T00:35:32.005Z,56.50
2023-04-23T00:38:05.413Z,56.53
2023-04-23T00:40:38.386Z,56.45
2023-04-23T00:43:11.787Z,56.40
2023-04-23T00:45:45.609Z,56.85
2023-04-23T00:48:18.416Z,56.81
2023-04-23T00:50:51.700Z,56.79
2023-04-23T00:53:23.901Z,56.40
2023-04-23T00:55:56.453Z,56.41
2023-04-23T00:58:29.047Z,56.92
2023-04-23T01:01:04.999Z,57.30
2023-04-23T01:03:41.175Z,56.96
2023-04-23T01:06:14.519Z,56.96
2023-04-23T01:08:48.463Z,57.20
2023-04-23T01:11:23.003Z,57.28
2023-04-23T01:13:55.825Z,56.86
2023-04-23T01:16:29.743Z,57.32
2023-04-23T01:19:02.470Z,57.38
2023-04-23T01:21:38.022Z,57.05
2023-04-23T01:24:11.303Z,57.02
2023-04-23T01:26:45.231Z,57.27
2023-04-23T01:29:18.407Z,57.10
2023-04-23T01:31:52.412Z,57.99
2023-04-23T01:34:25.280Z,57.51
2023-04-23T01:36:59.032Z,57.70
2023-04-23T01:39:32.048Z,58.03
2023-04-23T01:42:08.562Z,57.98
2023-04-23T01:44:41.206Z,57.90
2023-04-23T01:47:14.938Z,57.63
2023-04-23T01:49:47.241Z,58.03
2023-04-23T01:52:20.251Z,58.04
2023-04-23T01:54:52.785Z,58.32
2023-04-23T01:57:27.200Z,58.44
2023-04-23T02:00:08.393Z,57.87
2023-04-23T02:02:47.731Z,58.08
2023-04-23T02:05:22.966Z,58.31
2023-04-23T02:07:55.418Z,57.95
2023-04-23T02:10:27.731Z,58.61
2023-04-23T02:13:00.797Z,58.56
2023-04-23T02:15:38.184Z,58.35
2023-04-23T02:18:11.348Z,59.00
2023-04-23T02:20:45.338Z,58.70
2023-04-23T02:23:18.102Z,58.36
2023-04-23T02:25:51.434Z,58.50
2023-04-23T02:28:24.040Z,59.18
2023-04-23T02:30:56.464Z,59.10
2023-04-23T02:33:28.987Z,59.18
2023-04-23T02:36:02.190Z,58.76
2023-04-23T02:38:34.919Z,58.87
2023-04-23T02:41:07.973Z,58.81
2023-04-23T02:43:42.279Z,59.27
2023-04-23T02:46:15.257Z,58.82
2023-04-23T02:48:47.555Z,59.01
2023-04-23T02:51:20.035Z,59.43
2023-04-23T02:53:52.917Z,59.05
2023-04-23T02:56:26.816Z,59.38
2023-04-23T02:58:59.728Z,59.16
2023-04-23T03:01:32.373Z,59.89
2023-04-23T03:04:05.838Z,59.18
2023-04-23T03:06:38.593Z,59.62
2023-04-23T03:09:12.302Z,59.92
2023-04-23T03:11:44.893Z,59.88
2023-04-23T03:14:19.350Z,59.46
2023-04-23T03:16:52.234Z,59.78
2023-04-23T03:19:27.677Z,60.15
2023-04-23T03:22:01.087Z,60.03
2023-04-23T03:24:34.198Z,59.81
2023-04-23T03:27:08.457Z,59.65
2023-04-23T03:29:44.529Z,60.14
2023-04-23T03:32:17.067Z,60.26
2023-04-23T03:34:49.445Z,60.34
2023-04-23T03:37:22.973Z,60.41
2023-04-23T03:39:55.910Z,59.94
2023-04-23T03:42:28.662Z,60.19
2023-04-23T03:45:02.211Z,60.27
2023-04-23T03:47:37.972Z,60.26
2023-04-23T03:50:14.683Z,60.65
2023-04-23T03:52:48.087Z,60.61
2023-04-23T03:55:26.889Z,60.19
2023-04-23T03:58:01.866Z,61.10
2023-04-23T04:00:47.485Z,60.52
2023-04-23T04:03:20.292Z,60.76
2023-04-23T04:05:53.608Z,60.56
2023-04-23T04:08:26.845Z,60.94
2023-04-23T04:11:00.390Z,60.45
2023-04-23T04:13:32.993Z,60.72
2023-04-23T04:16:06.034Z,60.91
2023-04-23T04:18:39.519Z,60.69
2023-04-23T04:21:12.704Z,60.68
2023-04-23T04:23:45.657Z,60.70
2023-04-23T04:26:20.931Z,60.97
2023-04-23T04:28:53.621Z,60.09
2023-04-23T04:31:28.836Z,59.87
2023-04-23T04:34:01.956Z,60.01
2023-04-23T04:36:38.255Z,59.05
2023-04-23T04:39:13.750Z,58.14
2023-04-23T04:41:50.491Z,57.88
2023-04-23T04:44:26.690Z,57.39
2023-04-23T04:46:59.409Z,55.87
2023-04-23T04:49:32.376Z,55.01
2023-04-23T04:52:10.828Z,55.25
2023-04-23T04:54:43.380Z,53.72
2023-04-23T04:57:17.163Z,52.20
2023-04-23T04:59:50.448Z,51.27
2023-04-23T05:02:23.897Z,49.90
2023-04-23T05:04:56.491Z,48.77
2023-04-23T05:07:31.962Z,48.08
2023-04-23T05:10:04.240Z,47.48
2023-04-23T05:12:42.004Z,46.18
2023-04-23T05:15:15.621Z,45.50
2023-04-23T05:17:46.380Z,44.45
2023-04-23T05:20:19.164Z,44.04
2023-04-23T05:23:00.026Z,43.31
2023-04-23T05:25:34.680Z,41.88
2023-04-23T05:28:10.024Z,41.55
2023-04-23T05:30:44.020Z,40.60
2023-04-23T05:33:21.275Z,40.27
2023-04-23T05:35:55.700Z,39.59
2023-04-23T05:38:28.130Z,39.06
2023-04-23T05:41:00.570Z,38.91
2023-04-23T05:43:33.757Z,38.65
2023-04-23T05:46:07.793Z,38.79
2023-04-23T05:48:43.389Z,38.89
2023-04-23T05:51:16.023Z,39.83
2023-04-23T05:53:48.654Z,39.76
2023-04-23T05:56:21.277Z,39.68
2023-04-23T05:58:54.746Z,40.11
2023-04-23T06:01:27.257Z,40.65
2023-04-23T06:04:00.590Z,40.38
2023-04-23T06:06:36.010Z,40.01
2023-04-23T06:09:09.482Z,39.90
2023-04-23T06:11:42.146Z,40.20
2023-04-23T06:14:15.285Z,40.74
2023-04-23T06:16:53.621Z,41.11
2023-04-23T06:19:27.563Z,41.34
2023-04-23T06:22:00.385Z,42.00
2023-04-23T06:24:33.120Z,41.82
2023-04-23T06:27:05.810Z,42.18
2023-04-23T06:29:41.902Z,42.18
2023-04-23T06:32:17.278Z,42.83
2023-04-23T06:35:00.960Z,42.31
2023-04-23T06:37:39.477Z,42.14
2023-04-23T06:40:14.316Z,41.64
2023-04-23T06:42:48.191Z,40.53
2023-04-23T06:45:21.225Z,39.99
2023-04-23T06:47:53.877Z,39.17
2023-04-23T06:50:26.637Z,38.20
2023-04-23T06:53:00.903Z,37.78
2023-04-23T06:55:38.567Z,37.74
2023-04-23T06:58:12.750Z,38.25
2023-04-23T07:00:48.287Z,38.24
2023-04-23T07:03:22.041Z,37.97
2023-04-23T07:05:54.830Z,38.07
2023-04-23T07:08:27.508Z,38.29
2023-04-23T07:11:00.286Z,36.97
2023-04-23T07:13:33.817Z,36.31
2023-04-23T07:16:06.770Z,35.55
2023-04-23T07:18:40.684Z,35.37
2023-04-23T07:21:13.302Z,35.21
2023-04-23T07:23:46.185Z,35.90
2023-04-23T07:26:18.853Z,35.05
2023-04-23T07:28:53.000Z,35.31
2023-04-23T07:31:26.862Z,35.46
2023-04-23T07:33:59.313Z,34.48
2023-04-23T07:36:34.175Z,34.64
2023-04-23T07:39:07.777Z,35.89
2023-04-23T07:41:44.462Z,35.88
2023-04-23T07:44:16.980Z,36.58
2023-04-23T07:46:49.922Z,36.58
2023-04-23T07:49:25.869Z,35.39
2023-04-23T07:51:58.538Z,35.00
2023-04-23T07:54:30.947Z,34.51
2023-04-23T07:57:04.443Z,35.28
2023-04-23T07:59:36.724Z,35.44
2023-04-23T08:02:12.565Z,35.03
2023-04-23T08:04:45.201Z,34.44
2023-04-23T08:07:18.103Z,34.74
2023-04-23T08:09:50.586Z,34.32
2023-04-23T08:12:27.297Z,34.72
2023-04-23T08:14:59.734Z,34.18
2023-04-23T08:17:36.573Z,34.65
2023-04-23T08:20:11.673Z,34.64
2023-04-23T08:22:46.956Z,34.93
2023-04-23T08:25:19.693Z,34.94
2023-04-23T08:27:52.814Z,34.92
2023-04-23T08:30:25.229Z,35.14
2023-04-23T08:32:58.503Z,34.84
2023-04-23T08:35:32.380Z,34.53
2023-04-23T08:38:07.233Z,34.83
2023-04-23T08:40:43.747Z,34.82
2023-04-23T08:43:21.176Z,34.44
2023-04-23T08:45:54.582Z,34.36
2023-04-23T08:48:28.551Z,34.36
2023-04-23T08:51:06.656Z,33.66
2023-04-23T08:53:45.297Z,33.69
2023-04-23T08:56:18.101Z,33.24
2023-04-23T08:58:51.512Z,32.89
2023-04-23T09:01:26.459Z,33.40
2023-04-23T09:04:00.229Z,33.30
2023-04-23T09:06:34.141Z,32.70
2023-04-23T09:09:08.129Z,32.90
2023-04-23T09:11:42.409Z,32.64
2023-04-23T09:14:15.951Z,32.63
2023-04-23T09:16:49.275Z,32.02
2023-04-23T09:19:22.045Z,31.91
2023-04-23T09:21:59.436Z,32.83
2023-04-23T09:24:31.779Z,32.13
2023-04-23T09:27:04.509Z,31.95
2023-04-23T09:29:36.890Z,31.88
2023-04-23T09:32:11.598Z,32.04
2023-04-23T09:34:47.314Z,31.53
2023-04-23T09:37:21.424Z,31.28
2023-04-23T09:39:57.082Z,31.18
2023-04-23T09:42:31.514Z,30.81
2023-04-23T09:45:07.526Z,30.88
2023-04-23T09:47:49.706Z,30.66
2023-04-23T09:50:32.678Z,30.73
2023-04-23T09:53:06.375Z,30.38
2023-04-23T09:55:46.955Z,30.80
2023-04-23T09:58:29.077Z,30.26
2023-04-23T10:01:09.787Z,30.51
2023-04-23T10:03:46.833Z,30.19
2023-04-23T10:06:39.480Z,30.48
2023-04-23T10:09:12.224Z,30.42
2023-04-23T10:11:46.011Z,30.06
2023-04-23T10:14:18.333Z,29.66
2023-04-23T10:16:53.729Z,29.89
2023-04-23T10:19:27.681Z,30.37
2023-04-23T10:22:18.438Z,29.85
2023-04-23T10:24:58.797Z,29.48
2023-04-23T10:27:44.536Z,29.24
2023-04-23T10:30:24.717Z,29.78
2023-04-23T10:32:58.488Z,29.54
2023-04-23T10:35:32.533Z,29.40
2023-04-23T10:38:10.358Z,29.84
2023-04-23T10:40:46.771Z,29.42
2023-04-23T10:43:22.205Z,29.16
2023-04-23T10:45:54.816Z,28.74
2023-04-23T10:48:29.097Z,28.86
2023-04-23T10:51:30.579Z,28.91
2023-04-23T10:53:58.500Z,28.96
2023-04-23T10:56:35.170Z,28.78
2023-04-23T10:59:09.792Z,28.79
2023-04-23T11:01:45.033Z,28.60
2023-04-23T11:04:29.224Z,28.36
2023-04-23T11:07:10.957Z,28.42
2023-04-23T11:09:47.931Z,28.66
2023-04-23T11:15:34.865Z,28.54
2023-04-23T11:18:07.808Z,28.44
2023-04-23T11:20:43.785Z,28.09
2023-04-23T11:23:33.759Z,28.07
2023-04-23T11:26:09.145Z,27.58
2023-04-23T11:28:44.708Z,27.98
2023-04-23T11:31:17.960Z,27.85
2023-04-23T11:33:48.863Z,27.79
2023-04-23T11:36:21.335Z,27.24
2023-04-23T11:39:03.220Z,27.47
2023-04-23T11:41:37.935Z,27.97
2023-04-23T11:44:11.999Z,27.59
2023-04-23T11:46:52.490Z,27.55
2023-04-23T11:49:26.261Z,27.18
2023-04-23T11:52:06.432Z,27.30
2023-04-23T11:54:45.528Z,27.26
2023-04-23T11:57:18.013Z,27.25
2023-04-23T11:59:50.944Z,27.07
2023-04-23T12:02:30.031Z,27.27
2023-04-23T12:05:10.252Z,27.09
2023-04-23T12:07:45.179Z,27.66
2023-04-23T12:10:23.319Z,26.94
2023-04-23T12:12:55.993Z,26.88
2023-04-23T12:15:29.798Z,26.73
2023-04-23T12:18:13.302Z,26.59
2023-04-23T12:20:46.284Z,26.72
2023-04-23T12:23:19.458Z,26.92
2023-04-23T12:25:55.088Z,27.15
2023-04-23T12:28:28.788Z,26.60
2023-04-23T12:31:08.547Z,26.84
2023-04-23T12:33:42.305Z,26.87
2023-04-23T12:36:17.805Z,27.32
2023-04-23T12:38:54.322Z,27.02
2023-04-23T12:41:26.644Z,27.23
2023-04-23T12:44:01.748Z,27.05
2023-04-23T12:46:45.934Z,27.20
2023-04-23T12:49:18.676Z,27.47
2023-04-23T12:51:52.852Z,27.30
2023-04-23T12:54:27.101Z,26.83
2023-04-23T12:57:02.606Z,26.94
2023-04-23T12:59:39.969Z,27.14
2023-04-23T13:02:13.890Z,27.63
2023-04-23T13:04:47.731Z,26.95
2023-04-23T13:07:20.165Z,27.85
2023-04-23T13:09:52.773Z,27.39
2023-04-23T13:12:28.616Z,27.58
2023-04-23T13:15:01.915Z,27.20
2023-04-23T13:17:38.392Z,27.19
2023-04-23T13:20:12.548Z,27.56
2023-04-23T13:22:45.902Z,27.53
2023-04-23T13:25:18.307Z,27.58
2023-04-23T13:27:50.986Z,27.87
2023-04-23T13:30:23.673Z,27.50
2023-04-23T13:32:57.862Z,28.22
2023-04-23T13:35:31.251Z,28.02
2023-04-23T13:38:12.067Z,27.38
2023-04-23T13:40:45.734Z,27.89
2023-04-23T13:43:18.437Z,27.96
2023-04-23T13:45:51.214Z,27.52
2023-04-23T13:48:28.889Z,27.50
2023-04-23T13:51:07.091Z,27.89
2023-04-23T13:53:46.785Z,28.07
2023-04-23T13:56:19.350Z,27.81
2023-04-23T13:58:53.586Z,27.62
2023-04-23T14:01:27.330Z,27.83
2023-04-23T14:03:59.972Z,28.14
2023-04-23T14:06:43.416Z,28.55
2023-04-23T14:09:15.937Z,28.23
2023-04-23T14:11:48.534Z,28.09
2023-04-23T14:14:21.182Z,28.30
2023-04-23T14:16:54.682Z,28.60
2023-04-23T14:19:30.693Z,28.48
2023-04-23T14:22:03.170Z,28.08
2023-04-23T14:24:50.911Z,28.44
2023-04-23T14:27:23.611Z,28.01
2023-04-23T14:30:06.359Z,28.35
2023-04-23T14:32:48.463Z,28.33
2023-04-23T14:35:29.422Z,28.45
2023-04-23T14:38:15.345Z,28.74
2023-04-23T14:40:50.877Z,28.70
2023-04-23T14:43:23.421Z,28.92
2023-04-23T14:45:56.174Z,28.50
2023-04-23T14:48:30.168Z,28.51
2023-04-23T14:51:02.613Z,29.31
2023-04-23T14:53:36.383Z,29.30
2023-04-23T14:56:09.336Z,29.20
2023-04-23T14:58:43.855Z,29.07
2023-04-23T15:01:16.793Z,28.79
2023-04-23T15:03:54.012Z,29.38
2023-04-23T15:06:29.087Z,28.85
2023-04-23T15:09:02.896Z,28.93
2023-04-23T15:11:35.673Z,29.50
2023-04-23T15:14:20.420Z,29.10
2023-04-23T15:16:53.126Z,29.04
2023-04-23T15:19:33.676Z,29.25
2023-04-23T15:22:06.093Z,29.64
2023-04-23T15:24:38.877Z,29.54
2023-04-23T15:27:15.126Z,29.22
2023-04-23T15:29:47.748Z,29.57
2023-04-23T15:32:20.385Z,29.52
2023-04-23T15:34:52.974Z,29.78
2023-04-23T15:37:27.965Z,29.67
2023-04-23T15:40:01.368Z,29.79
2023-04-23T15:42:36.393Z,29.94
2023-04-23T15:45:11.357Z,29.46
2023-04-23T15:47:45.432Z,30.04
2023-04-23T15:50:23.215Z,30.17
2023-04-23T15:52:58.535Z,29.82
2023-04-23T15:55:34.708Z,29.58
2023-04-23T15:58:10.402Z,29.93
2023-04-23T16:00:45.680Z,29.58
2023-04-23T16:03:20.952Z,29.63
2023-04-23T16:05:54.442Z,30.33
2023-04-23T16:08:27.147Z,30.05
2023-04-23T16:10:59.770Z,30.07
2023-04-23T16:13:32.468Z,30.42
2023-04-23T16:16:05.533Z,30.72
2023-04-23T16:18:38.125Z,30.79
2023-04-23T16:21:18.547Z,30.21
2023-04-23T16:23:58.202Z,30.46
2023-04-23T16:26:35.326Z,30.76
2023-04-23T16:29:21.479Z,30.36
2023-04-23T16:31:55.480Z,31.00
2023-04-23T16:34:28.089Z,30.57
2023-04-23T16:37:00.950Z,30.65
2023-04-23T16:39:38.405Z,31.09
2023-04-23T16:42:10.790Z,30.67
2023-04-23T16:44:46.456Z,30.88
2023-04-23T16:47:19.488Z,31.05
2023-04-23T16:49:53.178Z,31.15
2023-04-23T16:52:25.719Z,31.30
2023-04-23T16:54:58.250Z,31.31
2023-04-23T16:57:35.183Z,31.73
2023-04-23T17:00:10.067Z,31.48
2023-04-23T17:02:46.270Z,32.06
2023-04-23T17:05:24.083Z,31.96
2023-04-23T17:07:57.819Z,32.07
2023-04-23T17:10:31.307Z,32.16
2023-04-23T17:13:04.227Z,32.68
2023-04-23T17:15:36.958Z,32.39
2023-04-23T17:18:11.253Z,32.77
2023-04-23T17:20:45.991Z,32.59
2023-04-23T17:23:18.515Z,32.72
2023-04-23T17:25:53.718Z,32.80
2023-04-23T17:28:26.250Z,33.01
2023-04-23T17:30:58.917Z,33.31
2023-04-23T17:33:31.539Z,33.43
2023-04-23T17:36:04.274Z,33.80
2023-04-23T17:38:37.423Z,33.99
2023-04-23T17:41:11.469Z,33.79
2023-04-23T17:43:46.791Z,34.30
2023-04-23T17:46:19.524Z,34.41
2023-04-23T17:48:52.343Z,34.27
2023-04-23T17:51:27.085Z,34.46
2023-04-23T17:54:01.618Z,34.61
2023-04-23T17:56:34.787Z,34.91
2023-04-23T17:59:08.085Z,34.88
2023-04-23T18:01:43.082Z,35.15
2023-04-23T18:04:17.928Z,35.62
2023-04-23T18:06:50.587Z,35.50
2023-04-23T18:09:23.309Z,35.83
2023-04-23T18:11:59.349Z,36.00
2023-04-23T18:14:32.977Z,36.00
2023-04-23T18:17:05.452Z,36.51
2023-04-23T18:19:37.822Z,36.79
2023-04-23T18:22:12.608Z,36.59
2023-04-23T18:24:46.927Z,37.39
2023-04-23T18:27:19.863Z,37.03
2023-04-23T18:29:53.807Z,37.23
2023-04-23T18:32:34.423Z,37.62
2023-04-23T18:35:10.713Z,37.51
2023-04-23T18:37:49.914Z,38.28
2023-04-23T18:40:23.218Z,37.94
2023-04-23T18:42:56.210Z,38.30
2023-04-23T18:45:31.555Z,37.73
2023-04-23T18:48:44.374Z,39.04
2023-04-23T18:51:33.441Z,38.40
2023-04-23T18:54:08.477Z,39.14
2023-04-23T18:56:43.327Z,38.92
2023-04-23T18:59:16.427Z,38.98
2023-04-23T19:01:50.378Z,39.28
2023-04-23T19:04:23.792Z,39.56
2023-04-23T19:06:57.561Z,39.51
2023-04-23T19:09:30.284Z,39.86
2023-04-23T19:12:03.825Z,39.45
2023-04-23T19:14:36.543Z,38.96
2023-04-23T19:17:09.274Z,40.11
2023-04-23T19:19:43.444Z,39.77
2023-04-23T19:22:16.388Z,39.97
2023-04-23T19:24:49.050Z,39.79
2023-04-23T19:27:21.883Z,40.09
2023-04-23T19:29:56.049Z,40.22
2023-04-23T19:32:28.641Z,40.23
2023-04-23T19:35:01.320Z,39.78
2023-04-23T19:37:33.939Z,39.84
2023-04-23T19:40:09.448Z,40.02
2023-04-23T19:42:42.566Z,39.59
2023-04-23T19:45:18.667Z,39.73
2023-04-23T19:47:51.193Z,40.49
2023-04-23T19:50:24.457Z,39.97
2023-04-23T19:52:57.129Z,40.99
2023-04-23T19:55:32.167Z,40.12
2023-04-23T19:58:06.775Z,40.47
2023-04-23T20:00:41.555Z,40.66
2023-04-23T20:03:17.597Z,39.92
2023-04-23T20:05:52.735Z,40.31
2023-04-23T20:08:29.985Z,41.01
2023-04-23T20:11:03.333Z,41.13
2023-04-23T20:13:39.260Z,41.07
2023-04-23T20:16:14.897Z,40.68
2023-04-23T20:18:47.435Z,40.23
2023-04-23T20:21:20.048Z,41.40
2023-04-23T20:23:52.988Z,40.36
2023-04-23T20:26:26.459Z,41.09
2023-04-23T20:29:06.554Z,40.51
2023-04-23T20:31:39.336Z,41.22
2023-04-23T20:34:14.955Z,41.67
2023-04-23T20:36:48.271Z,41.31
2023-04-23T20:39:24.411Z,41.24
2023-04-23T20:41:58.125Z,41.43
2023-04-23T20:44:33.748Z,41.02
2023-04-23T20:47:09.037Z,41.22
2023-04-23T20:49:42.786Z,42.24
2023-04-23T20:52:15.872Z,41.45
2023-04-23T20:54:48.492Z,42.61
2023-04-23T20:57:21.626Z,42.02
2023-04-23T20:59:54.638Z,42.13
2023-04-23T21:02:27.228Z,42.27
2023-04-23T21:05:01.183Z,42.27
2023-04-23T21:07:36.904Z,42.75
2023-04-23T21:10:10.697Z,42.49
2023-04-23T21:12:43.924Z,42.65
2023-04-23T21:15:18.003Z,43.48
2023-04-23T21:17:48.653Z,43.35
2023-04-23T21:20:21.080Z,42.62
2023-04-23T21:22:53.380Z,42.88
2023-04-23T21:25:26.946Z,43.77
2023-04-23T21:27:59.920Z,43.99
2023-04-23T21:30:48.582Z,44.20
2023-04-23T21:33:22.250Z,44.42
2023-04-23T21:35:56.206Z,43.73
2023-04-23T21:38:30.652Z,44.37
2023-04-23T21:41:03.594Z,44.27
2023-04-23T21:43:36.747Z,44.11
2023-04-23T21:46:09.725Z,44.28
2023-04-23T21:48:42.620Z,44.32
2023-04-23T21:51:15.731Z,44.29
2023-04-23T21:53:48.382Z,45.04
2023-04-23T21:56:21.994Z,45.40
2023-04-23T21:58:55.093Z,45.28
2023-04-23T22:01:27.993Z,45.68
2023-04-23T22:04:01.875Z,44.91
2023-04-23T22:06:35.633Z,45.87
2023-04-23T22:09:08.578Z,45.83
2023-04-23T22:11:48.873Z,46.41
2023-04-23T22:14:28.022Z,46.47
2023-04-23T22:17:02.354Z,46.16
2023-04-23T22:19:37.579Z,46.36
2023-04-23T22:22:10.517Z,46.63
2023-04-23T22:24:42.865Z,46.25
2023-04-23T22:27:16.024Z,46.38
2023-04-23T22:29:48.719Z,46.90
2023-04-23T22:32:21.582Z,46.62
2023-04-23T22:34:56.478Z,47.05
2023-04-23T22:37:30.160Z,46.94
2023-04-23T22:40:04.260Z,46.96
2023-04-23T22:42:37.811Z,47.66
2023-04-23T22:45:15.906Z,47.29
2023-04-23T22:47:49.094Z,47.79
2023-04-23T22:50:22.595Z,48.04
2023-04-23T22:52:56.643Z,48.42
2023-04-23T22:55:29.184Z,48.51
2023-04-23T22:58:03.964Z,48.68
2023-04-23T23:00:37.621Z,48.04
2023-04-23T23:03:10.189Z,48.85
2023-04-23T23:05:50.493Z,48.94
2023-04-23T23:08:23.234Z,48.84
2023-04-23T23:10:56.468Z,48.94
2023-04-23T23:13:29.516Z,48.58
2023-04-23T23:16:06.138Z,49.32
2023-04-23T23:18:39.203Z,48.99
2023-04-23T23:21:11.886Z,48.62
2023-04-23T23:23:46.858Z,49.27
2023-04-23T23:26:20.229Z,49.40
2023-04-23T23:28:52.865Z,49.13
2023-04-23T23:31:26.311Z,49.79
2023-04-23T23:33:58.639Z,49.60
2023-04-23T23:36:32.078Z,49.42
2023-04-23T23:39:04.733Z,49.54
2023-04-23T23:41:37.487Z,49.27
2023-04-23T23:44:10.335Z,49.91
2023-04-23T23:46:44.435Z,49.78
2023-04-23T23:49:15.170Z,49.67
2023-04-23T23:51:48.499Z,49.85
2023-04-23T23:54:23.851Z,50.48
2023-04-23T23:56:57.217Z,50.11
2023-04-23T23:59:29.640Z,50.12
